Time;durP1;ratioP1;P1;durP2;ratioP2;P2;SDS_P1;SDS_P2;PMS_P1;PMS_P2;Temp;Humidity;BMP_temperature;BMP_pressure;BME280_temperature;BME280_humidity;BME280_pressure;Samples;Min_cycle;Max_cycle;Signal;HPM_P1;HPM_P2
2022/04/12 00:00:00;;;;;;;12.10;6.38;;;11.50;76.30;;;;;;5054932;28;20112;-66
2022/04/12 00:02:27;;;;;;;13.48;6.18;;;11.50;76.50;;;;;;5055158;28;20025;-62
2022/04/12 00:04:53;;;;;;;16.55;7.45;;;11.50;76.80;;;;;;5054911;28;20492;-64
2022/04/12 00:07:18;;;;;;;14.05;6.60;;;11.50;77.00;;;;;;5055039;28;20025;-64
2022/04/12 00:09:44;;;;;;;15.80;6.70;;;11.40;77.10;;;;;;5054443;28;20037;-64
2022/04/12 00:12:10;;;;;;;15.23;6.63;;;11.40;77.30;;;;;;5054948;28;20037;-66
2022/04/12 00:14:36;;;;;;;15.45;6.70;;;11.40;77.50;;;;;;5053386;28;20033;-66
2022/04/12 00:19:46;;;;;;;13.93;5.90;;;11.30;77.60;;;;;;5054608;28;20078;-65
2022/04/12 00:22:11;;;;;;;12.80;6.85;;;11.30;77.90;;;;;;5054549;28;20025;-66
2022/04/12 00:24:37;;;;;;;15.98;6.65;;;11.30;78.00;;;;;;5054500;28;20029;-63
2022/04/12 00:27:02;;;;;;;15.75;6.30;;;11.30;78.20;;;;;;5054343;28;20548;-67
2022/04/12 00:29:29;;;;;;;14.05;6.45;;;11.30;78.30;;;;;;5054452;28;20442;-65
2022/04/12 00:31:54;;;;;;;15.07;6.30;;;11.30;78.20;;;;;;5054593;28;20027;-66
2022/04/12 00:34:20;;;;;;;13.40;5.78;;;11.30;78.20;;;;;;5054851;28;20116;-65
2022/04/12 00:36:45;;;;;;;11.80;5.53;;;11.30;78.10;;;;;;5054157;28;20392;-66
2022/04/12 00:39:11;;;;;;;14.52;5.97;;;11.40;78.30;;;;;;5053709;28;20087;-67
2022/04/12 00:41:37;;;;;;;13.90;6.47;;;11.40;78.30;;;;;;5054813;28;20464;-63
2022/04/12 00:44:03;;;;;;;13.13;5.95;;;11.40;78.40;;;;;;5053732;28;20452;-65
2022/04/12 00:46:28;;;;;;;14.40;6.47;;;11.40;78.50;;;;;;5053857;28;20668;-67
2022/04/12 00:48:54;;;;;;;12.82;5.82;;;11.40;78.60;;;;;;5053894;28;20048;-65
2022/04/12 00:51:20;;;;;;;14.85;6.18;;;11.40;78.70;;;;;;5052927;28;20437;-64
2022/04/12 00:53:46;;;;;;;15.57;6.05;;;11.40;78.80;;;;;;5053844;28;20033;-64
2022/04/12 00:56:12;;;;;;;14.95;5.85;;;11.40;78.90;;;;;;5054045;28;20033;-69
2022/04/12 00:58:38;;;;;;;12.02;5.60;;;11.30;79.00;;;;;;5053837;28;20025;-68
2022/04/12 01:01:04;;;;;;;12.98;6.28;;;11.40;78.90;;;;;;5054106;28;20025;-65
2022/04/12 01:03:29;;;;;;;13.52;5.90;;;11.40;79.10;;;;;;5054343;28;20027;-63
2022/04/12 01:05:56;;;;;;;13.20;5.63;;;11.30;79.10;;;;;;5054022;28;20111;-66
2022/04/12 01:08:22;;;;;;;11.00;5.55;;;11.30;79.40;;;;;;5053757;28;20060;-65
2022/04/12 01:10:48;;;;;;;14.13;5.80;;;11.30;79.50;;;;;;5053315;28;20025;-64
2022/04/12 01:13:14;;;;;;;12.23;5.85;;;11.30;79.60;;;;;;5053993;28;20444;-67
2022/04/12 01:15:42;;;;;;;16.08;6.65;;;11.20;79.70;;;;;;5053336;28;20084;-65
2022/04/12 01:18:08;;;;;;;14.38;6.30;;;11.20;79.90;;;;;;5053371;28;20025;-63
2022/04/12 01:20:34;;;;;;;14.93;5.43;;;11.20;80.20;;;;;;5052853;28;20032;-65
2022/04/12 01:23:09;;;;;;;11.52;5.55;;;11.20;80.20;;;;;;5053378;28;20082;-64
2022/04/12 01:25:37;;;;;;;13.93;6.18;;;11.10;80.40;;;;;;5053213;28;20063;-67
2022/04/12 01:28:03;;;;;;;13.02;6.20;;;11.10;80.50;;;;;;5053729;28;20417;-69
2022/04/12 01:30:28;;;;;;;12.77;5.80;;;11.10;80.70;;;;;;5053199;28;20040;-68
2022/04/12 01:32:54;;;;;;;14.60;5.75;;;11.00;80.80;;;;;;5052890;28;20033;-62
2022/04/12 01:35:19;;;;;;;12.90;5.90;;;11.00;81.10;;;;;;5053119;28;20398;-66
2022/04/12 01:37:45;;;;;;;15.27;6.53;;;11.00;81.40;;;;;;5053358;28;20021;-65
2022/04/12 01:40:11;;;;;;;13.98;5.95;;;11.00;81.50;;;;;;5053010;28;20029;-64
2022/04/12 01:42:38;;;;;;;13.07;5.55;;;10.90;81.80;;;;;;5052662;28;20020;-64
2022/04/12 01:45:04;;;;;;;11.52;5.80;;;10.90;81.90;;;;;;5053150;28;20032;-63
2022/04/12 01:47:30;;;;;;;15.20;6.13;;;10.80;82.10;;;;;;5052765;28;20473;-64
2022/04/12 01:49:55;;;;;;;13.45;6.20;;;10.80;82.30;;;;;;5052647;28;20114;-65
2022/04/12 01:52:22;;;;;;;12.73;5.85;;;10.80;82.40;;;;;;5052939;28;20041;-67
2022/04/12 01:54:47;;;;;;;13.55;5.65;;;10.80;82.70;;;;;;5052867;28;20025;-67
2022/04/12 01:57:13;;;;;;;11.63;5.68;;;10.70;82.90;;;;;;5053236;28;20040;-66
2022/04/12 01:59:39;;;;;;;12.73;6.22;;;10.70;83.10;;;;;;5052452;28;20028;-67
2022/04/12 02:02:04;;;;;;;13.27;6.38;;;10.60;83.20;;;;;;5052827;28;20024;-63
2022/04/12 02:04:30;;;;;;;14.02;5.90;;;10.60;83.40;;;;;;5052193;28;20017;-68
2022/04/12 02:06:57;;;;;;;13.38;5.72;;;10.60;83.50;;;;;;5052363;28;20021;-65
2022/04/12 02:09:22;;;;;;;14.80;6.55;;;10.60;83.80;;;;;;5051515;28;20045;-64
2022/04/12 02:11:48;;;;;;;18.95;7.32;;;10.50;84.00;;;;;;5052911;28;20075;-65
2022/04/12 02:14:13;;;;;;;13.90;5.72;;;10.50;84.20;;;;;;5052946;28;20074;-67
2022/04/12 02:16:39;;;;;;;14.32;6.78;;;10.50;84.50;;;;;;5052587;28;20025;-67
2022/04/12 02:19:04;;;;;;;18.63;8.20;;;10.40;84.60;;;;;;5052605;28;20029;-65
2022/04/12 02:21:30;;;;;;;14.13;6.72;;;10.40;84.80;;;;;;5051877;28;20036;-67
2022/04/12 02:23:56;;;;;;;14.43;6.28;;;10.40;85.00;;;;;;5052392;28;20091;-66
2022/04/12 02:26:21;;;;;;;12.75;6.00;;;10.30;85.10;;;;;;5052084;28;20041;-65
2022/04/12 02:28:47;;;;;;;12.60;6.20;;;10.30;85.40;;;;;;5052284;28;20522;-63
2022/04/12 02:31:12;;;;;;;13.15;5.90;;;10.30;85.60;;;;;;5052238;28;20525;-65
2022/04/12 02:33:38;;;;;;;17.75;7.07;;;10.30;85.80;;;;;;5052750;28;20393;-67
2022/04/12 02:36:04;;;;;;;13.07;5.40;;;10.30;85.90;;;;;;5052122;28;20120;-66
2022/04/12 02:38:29;;;;;;;10.82;5.45;;;10.20;86.00;;;;;;5052935;28;20060;-64
2022/04/12 02:40:55;;;;;;;12.27;5.43;;;10.20;86.30;;;;;;5052689;28;20374;-64
2022/04/12 02:43:20;;;;;;;15.60;5.45;;;10.20;86.40;;;;;;5051168;28;20037;-64
2022/04/12 02:45:47;;;;;;;13.60;6.03;;;10.20;86.60;;;;;;5052107;28;20025;-63
2022/04/12 02:48:12;;;;;;;13.85;5.75;;;10.20;86.80;;;;;;5052121;28;20025;-67
2022/04/12 02:50:38;;;;;;;14.93;6.30;;;10.20;87.10;;;;;;5051834;28;20047;-66
2022/04/12 02:53:04;;;;;;;12.57;5.47;;;10.10;87.10;;;;;;5050248;28;20033;-67
2022/04/12 02:55:29;;;;;;;12.15;5.90;;;10.10;87.40;;;;;;5051950;28;20460;-67
2022/04/12 02:57:55;;;;;;;13.60;5.97;;;10.10;87.70;;;;;;5052099;28;20108;-64
2022/04/12 03:00:21;;;;;;;11.40;5.80;;;10.10;87.90;;;;;;5052232;28;20060;-65
2022/04/12 03:02:46;;;;;;;10.63;5.25;;;10.10;88.10;;;;;;5051248;28;20039;-63
2022/04/12 03:05:12;;;;;;;12.13;5.50;;;10.10;88.20;;;;;;5052141;28;20036;-61
2022/04/12 03:07:37;;;;;;;13.75;5.60;;;10.00;88.60;;;;;;5052156;28;20025;-63
2022/04/12 03:10:04;;;;;;;9.15;5.28;;;10.00;88.80;;;;;;5051523;28;20128;-66
2022/04/12 03:12:29;;;;;;;9.80;5.00;;;10.00;88.90;;;;;;5052014;28;20083;-67
2022/04/12 03:14:55;;;;;;;10.15;5.00;;;10.00;89.30;;;;;;5051784;28;20056;-66
2022/04/12 03:17:20;;;;;;;14.02;5.80;;;10.00;89.50;;;;;;5050968;28;20099;-63
2022/04/12 03:19:46;;;;;;;11.45;5.53;;;9.90;89.70;;;;;;5051805;28;20057;-64
2022/04/12 03:22:12;;;;;;;11.70;5.30;;;9.90;90.30;;;;;;5051375;28;20140;-64
2022/04/12 03:24:38;;;;;;;13.70;5.78;;;9.90;90.00;;;;;;5051721;28;20495;-65
2022/04/12 03:27:05;;;;;;;14.13;5.53;;;9.90;90.20;;;;;;5051656;28;20061;-64
2022/04/12 03:29:30;;;;;;;12.30;4.88;;;9.90;90.30;;;;;;5051391;28;20171;-66
2022/04/12 03:31:56;;;;;;;13.25;5.15;;;9.90;90.40;;;;;;5051926;28;20053;-62
2022/04/12 03:34:22;;;;;;;10.90;4.88;;;9.80;90.50;;;;;;5051614;28;20449;-64
2022/04/12 03:36:48;;;;;;;12.13;5.53;;;9.90;90.60;;;;;;5050187;28;20052;-65
2022/04/12 03:39:17;;;;;;;14.40;5.13;;;9.90;90.60;;;;;;5051504;28;20056;-66
2022/04/12 03:41:47;;;;;;;12.85;5.10;;;9.90;90.70;;;;;;5051640;28;20025;-66
2022/04/12 03:44:13;;;;;;;16.25;5.38;;;9.90;90.80;;;;;;5051954;28;20100;-63
2022/04/12 03:46:39;;;;;;;13.15;6.07;;;9.90;90.90;;;;;;5051809;28;20752;-66
2022/04/12 03:49:05;;;;;;;12.93;5.55;;;9.90;91.10;;;;;;5051184;28;20071;-64
2022/04/12 03:51:31;;;;;;;12.43;5.25;;;9.90;91.10;;;;;;5051696;28;20083;-66
2022/04/12 03:53:56;;;;;;;11.70;5.13;;;9.90;91.60;;;;;;5051977;28;20025;-65
2022/04/12 03:56:22;;;;;;;10.93;5.20;;;9.90;92.10;;;;;;5055317;28;20523;-68
2022/04/12 03:58:48;;;;;;;11.55;5.70;;;9.90;92.10;;;;;;5055139;28;20239;-63
2022/04/12 04:01:14;;;;;;;15.05;5.68;;;10.00;91.80;;;;;;5055390;28;20044;-65
2022/04/12 04:03:40;;;;;;;11.43;5.43;;;10.00;91.80;;;;;;5054523;28;20032;-63
2022/04/12 04:06:05;;;;;;;11.07;4.97;;;10.10;91.70;;;;;;5055271;28;20104;-64
2022/04/12 04:08:31;;;;;;;12.10;5.57;;;10.10;91.70;;;;;;5055153;28;20076;-64
2022/04/12 04:10:57;;;;;;;12.13;5.13;;;10.10;91.70;;;;;;5055174;28;20033;-63
2022/04/12 04:13:24;;;;;;;14.90;5.43;;;10.20;91.60;;;;;;5054140;28;20029;-63
2022/04/12 04:15:50;;;;;;;10.52;4.68;;;10.20;91.70;;;;;;5055160;28;20017;-62
2022/04/12 04:18:16;;;;;;;14.43;5.50;;;10.20;91.70;;;;;;5054807;28;20104;-63
2022/04/12 04:20:42;;;;;;;13.05;5.63;;;10.20;91.80;;;;;;5055005;28;20321;-64
2022/04/12 04:23:08;;;;;;;12.60;5.72;;;10.20;91.90;;;;;;5054513;28;20369;-63
2022/04/12 04:25:34;;;;;;;14.60;5.40;;;10.10;91.80;;;;;;5054266;28;20508;-62
2022/04/12 04:28:00;;;;;;;13.80;6.45;;;10.10;92.00;;;;;;5054853;28;20108;-63
2022/04/12 04:30:26;;;;;;;15.95;5.82;;;10.10;92.10;;;;;;5054733;28;20041;-64
2022/04/12 04:32:51;;;;;;;13.63;5.40;;;10.10;92.10;;;;;;5055126;28;20025;-63
2022/04/12 04:35:17;;;;;;;13.95;5.53;;;10.10;92.20;;;;;;5054483;28;20127;-63
2022/04/12 04:37:47;;;;;;;13.40;5.78;;;10.10;92.30;;;;;;5054314;28;20456;-64
2022/04/12 04:40:17;;;;;;;12.35;5.80;;;10.00;92.60;;;;;;5054347;28;20024;-63
2022/04/12 04:42:44;;;;;;;14.45;5.95;;;10.00;92.70;;;;;;5054688;28;20139;-62
2022/04/12 04:45:11;;;;;;;14.02;6.22;;;10.00;92.70;;;;;;5054145;28;20037;-64
2022/04/12 04:47:51;;;;;;;11.57;6.05;;;9.90;92.90;;;;;;5054412;28;20075;-63
2022/04/12 04:50:22;;;;;;;11.50;6.03;;;9.90;93.20;;;;;;5053794;28;20049;-64
2022/04/12 04:52:48;;;;;;;14.80;5.38;;;9.80;93.30;;;;;;5054221;28;20049;-64
2022/04/12 04:55:16;;;;;;;14.82;5.85;;;9.80;93.40;;;;;;5054224;28;20024;-64
2022/04/12 04:57:43;;;;;;;13.75;6.32;;;9.70;93.60;;;;;;5053685;28;20033;-64
2022/04/12 05:00:18;;;;;;;14.73;6.22;;;9.70;93.90;;;;;;5054212;28;20087;-63
2022/04/12 05:02:48;;;;;;;13.73;6.00;;;9.70;94.00;;;;;;5054147;28;20444;-64
2022/04/12 05:05:14;;;;;;;12.43;6.03;;;9.60;94.30;;;;;;5053704;28;20052;-63
2022/04/12 05:07:42;;;;;;;14.57;5.85;;;9.60;94.30;;;;;;5053945;28;20055;-63
2022/04/12 05:10:09;;;;;;;13.95;6.35;;;9.60;94.50;;;;;;5053349;28;20169;-64
2022/04/12 05:12:34;;;;;;;14.75;5.95;;;9.60;94.50;;;;;;5054397;28;20028;-63
2022/04/12 05:15:00;;;;;;;12.98;5.55;;;9.60;94.50;;;;;;5053519;28;20108;-64
2022/04/12 05:17:29;;;;;;;14.07;6.00;;;9.60;94.70;;;;;;5053629;28;20457;-64
2022/04/12 05:19:58;;;;;;;13.75;5.95;;;9.60;94.90;;;;;;5054098;28;20032;-63
2022/04/12 05:22:24;;;;;;;13.88;6.25;;;9.60;95.00;;;;;;5053525;28;20028;-64
2022/04/12 05:24:50;;;;;;;15.82;6.63;;;9.60;94.90;;;;;;5054013;28;20027;-63
2022/04/12 05:27:17;;;;;;;15.10;6.38;;;9.60;95.00;;;;;;5053137;28;20041;-63
2022/04/12 05:29:43;;;;;;;14.13;6.22;;;9.60;95.10;;;;;;5053328;28;20037;-63
2022/04/12 05:32:09;;;;;;;17.17;6.68;;;9.60;95.20;;;;;;5052713;28;20029;-63
2022/04/12 05:34:45;;;;;;;12.90;6.18;;;9.60;95.30;;;;;;5053413;28;20017;-63
2022/04/12 05:37:11;;;;;;;14.43;6.35;;;9.60;95.30;;;;;;5033483;28;20044;-63
2022/04/12 05:39:36;;;;;;;14.75;5.90;;;9.70;95.50;;;;;;5039421;28;20462;-63
2022/04/12 05:42:02;;;;;;;12.63;5.75;;;9.60;95.60;;;;;;5053111;28;20428;-65
2022/04/12 05:44:29;;;;;;;12.85;5.85;;;9.70;95.60;;;;;;5053137;28;20029;-63
2022/04/12 05:46:55;;;;;;;15.57;6.30;;;9.70;95.70;;;;;;5053303;28;20023;-62
2022/04/12 05:49:21;;;;;;;18.65;6.20;;;9.70;95.80;;;;;;5053229;28;20033;-64
2022/04/12 05:51:47;;;;;;;17.80;6.18;;;9.70;96.20;;;;;;5052982;28;20060;-63
2022/04/12 05:54:13;;;;;;;13.75;6.32;;;9.70;96.00;;;;;;5052884;28;20056;-63
2022/04/12 05:56:38;;;;;;;15.35;6.55;;;9.80;96.00;;;;;;5050235;28;20017;-64
2022/04/12 05:59:06;;;;;;;17.55;6.32;;;9.90;96.00;;;;;;5052893;28;20041;-63
2022/04/12 06:01:31;;;;;;;12.27;6.03;;;9.90;96.00;;;;;;5052831;28;20082;-63
2022/04/12 06:03:57;;;;;;;14.25;6.50;;;10.00;96.00;;;;;;5052721;28;20103;-64
2022/04/12 06:06:23;;;;;;;15.95;6.70;;;10.10;95.80;;;;;;5051431;28;20021;-64
2022/04/12 06:08:48;;;;;;;16.45;6.25;;;10.10;95.90;;;;;;5051581;28;20431;-64
2022/04/12 06:11:14;;;;;;;12.05;6.07;;;10.30;95.80;;;;;;5052765;28;20382;-63
2022/04/12 06:13:39;;;;;;;14.48;5.60;;;10.40;95.50;;;;;;5053079;28;20052;-64
2022/04/12 06:16:05;;;;;;;13.35;6.25;;;10.50;95.30;;;;;;5052669;28;20483;-64
2022/04/12 06:18:31;;;;;;;14.55;5.53;;;10.60;95.30;;;;;;5052505;28;20431;-64
2022/04/12 06:20:56;;;;;;;14.32;6.25;;;10.70;95.10;;;;;;5051627;28;20017;-64
2022/04/12 06:23:22;;;;;;;12.48;5.68;;;10.80;94.90;;;;;;5053075;28;20029;-63
2022/04/12 06:25:47;;;;;;;14.63;6.45;;;11.00;94.60;;;;;;5052359;28;20052;-63
2022/04/12 06:28:13;;;;;;;12.65;5.70;;;11.10;94.40;;;;;;5052434;28;20064;-63
2022/04/12 06:30:38;;;;;;;17.92;6.57;;;11.30;94.40;;;;;;5050947;28;20033;-64
2022/04/12 06:33:04;;;;;;;14.18;6.68;;;11.50;94.20;;;;;;5052264;28;20032;-64
2022/04/12 06:35:29;;;;;;;17.42;6.50;;;11.70;93.80;;;;;;5052574;28;20021;-64
2022/04/12 06:37:56;;;;;;;13.60;5.82;;;11.90;93.60;;;;;;5052216;28;20060;-64
2022/04/12 06:40:22;;;;;;;13.30;5.95;;;12.20;93.40;;;;;;5050452;28;20067;-63
2022/04/12 06:42:49;;;;;;;16.13;6.18;;;12.30;93.30;;;;;;5052502;28;20040;-64
2022/04/12 06:45:15;;;;;;;13.82;5.97;;;12.60;92.60;;;;;;5051829;28;20445;-63
2022/04/12 06:47:42;;;;;;;14.35;6.20;;;12.80;92.30;;;;;;5052288;28;20017;-64
2022/04/12 06:50:09;;;;;;;14.50;5.78;;;13.10;92.00;;;;;;5051843;28;20041;-64
2022/04/12 06:52:35;;;;;;;12.90;6.47;;;13.30;91.70;;;;;;5052516;28;20076;-64
2022/04/12 06:55:01;;;;;;;14.63;6.00;;;13.60;91.00;;;;;;5052129;28;20029;-64
2022/04/12 06:57:34;;;;;;;10.48;5.43;;;13.70;90.60;;;;;;5051743;28;20446;-64
2022/04/12 07:00:01;;;;;;;14.60;6.28;;;13.70;90.40;;;;;;5052639;28;20028;-63
2022/04/12 07:02:26;;;;;;;15.00;6.68;;;13.80;90.10;;;;;;5049888;28;20033;-63
2022/04/12 07:04:52;;;;;;;12.35;6.30;;;13.80;90.10;;;;;;5049929;28;20040;-63
2022/04/12 07:07:17;;;;;;;13.00;6.90;;;13.80;90.20;;;;;;5051089;28;20029;-63
2022/04/12 07:09:43;;;;;;;14.35;5.78;;;13.80;90.30;;;;;;5051602;28;20033;-63
2022/04/12 07:12:08;;;;;;;14.02;6.20;;;13.90;90.20;;;;;;5051030;28;20024;-64
2022/04/12 07:14:34;;;;;;;11.98;5.90;;;14.00;90.20;;;;;;5051476;28;20468;-64
2022/04/12 07:17:00;;;;;;;13.30;5.80;;;14.20;90.20;;;;;;5051000;28;20025;-63
2022/04/12 07:19:26;;;;;;;13.50;6.35;;;14.20;89.70;;;;;;5052049;28;20056;-63
2022/04/12 07:21:52;;;;;;;12.38;6.07;;;14.20;89.50;;;;;;5052317;28;20511;-63
2022/04/12 07:24:18;;;;;;;15.82;6.13;;;14.20;90.30;;;;;;5052779;28;20017;-63
2022/04/12 07:26:44;;;;;;;13.57;6.07;;;14.30;90.00;;;;;;5051730;28;20393;-63
2022/04/12 07:29:10;;;;;;;13.13;6.32;;;14.40;89.20;;;;;;5053273;28;20033;-63
2022/04/12 07:31:35;;;;;;;13.18;6.05;;;14.60;90.20;;;;;;5054336;28;20028;-63
2022/04/12 07:34:01;;;;;;;12.65;6.30;;;14.70;88.80;;;;;;5056267;28;20017;-63
2022/04/12 07:36:27;;;;;;;16.20;6.13;;;15.00;88.00;;;;;;5054624;28;20024;-63
2022/04/12 07:38:52;;;;;;;14.48;6.22;;;15.20;87.50;;;;;;5055587;28;20059;-63
2022/04/12 07:41:19;;;;;;;14.75;6.30;;;15.50;86.70;;;;;;5055747;28;20136;-63
2022/04/12 07:43:46;;;;;;;14.95;6.32;;;15.80;86.10;;;;;;5056263;28;20029;-63
2022/04/12 07:46:15;;;;;;;13.13;6.20;;;16.00;85.00;;;;;;5053367;28;20032;-63
2022/04/12 07:48:41;;;;;;;13.40;6.10;;;16.20;84.40;;;;;;5068407;28;20443;-63
2022/04/12 07:51:07;;;;;;;18.20;6.78;;;16.50;83.50;;;;;;5075654;28;20127;-63
2022/04/12 07:53:33;;;;;;;13.48;5.82;;;16.80;83.40;;;;;;5074858;28;20107;-62
2022/04/12 07:55:59;;;;;;;14.68;5.95;;;17.40;81.70;;;;;;5075673;28;20097;-63
2022/04/12 07:58:24;;;;;;;16.98;6.18;;;17.80;80.80;;;;;;5075706;28;20040;-63
2022/04/12 08:00:51;;;;;;;13.85;6.05;;;18.20;79.50;;;;;;5076150;28;20036;-64
2022/04/12 08:03:20;;;;;;;14.88;6.18;;;18.80;78.00;;;;;;5075264;28;20044;-64
2022/04/12 08:05:46;;;;;;;10.50;5.35;;;19.40;77.00;;;;;;5075685;28;20084;-63
2022/04/12 08:08:12;;;;;;;14.00;6.43;;;20.00;75.50;;;;;;5075614;28;20028;-63
2022/04/12 08:10:37;;;;;;;13.25;5.78;;;20.70;73.80;;;;;;5075500;28;20051;-63
2022/04/12 08:13:03;;;;;;;12.00;5.68;;;21.30;72.10;;;;;;5075493;28;20482;-64
2022/04/12 08:15:28;;;;;;;13.55;5.93;;;21.90;70.90;;;;;;5074325;28;20031;-64
2022/04/12 08:17:54;;;;;;;9.88;5.75;;;22.00;68.80;;;;;;5075765;28;20540;-63
2022/04/12 08:20:20;;;;;;;12.57;5.55;;;21.90;68.30;;;;;;5074073;28;20487;-63
2022/04/12 08:22:45;;;;;;;11.52;5.57;;;22.00;67.60;;;;;;5075263;28;20048;-63
2022/04/12 08:25:11;;;;;;;10.15;4.78;;;22.00;67.50;;;;;;5074018;28;20048;-63
2022/04/12 08:27:37;;;;;;;12.48;6.05;;;22.00;67.30;;;;;;5074875;28;20402;-64
2022/04/12 08:30:06;;;;;;;11.20;5.55;;;22.20;66.70;;;;;;5074672;28;20384;-64
2022/04/12 08:32:33;;;;;;;11.50;5.85;;;22.30;66.20;;;;;;5075145;28;20491;-63
2022/04/12 08:34:59;;;;;;;14.20;6.53;;;22.30;66.30;;;;;;5073968;28;20360;-64
2022/04/12 08:37:24;;;;;;;13.88;6.43;;;22.30;66.20;;;;;;5075277;28;20035;-64
2022/04/12 08:39:51;;;;;;;11.10;5.90;;;22.60;65.80;;;;;;5074979;28;20025;-64
2022/04/12 08:42:17;;;;;;;12.40;6.18;;;23.00;65.50;;;;;;5074010;28;20035;-64
2022/04/12 08:44:46;;;;;;;12.45;6.38;;;23.60;65.10;;;;;;5074840;28;20415;-64
2022/04/12 08:47:14;;;;;;;12.98;6.20;;;24.30;63.90;;;;;;5074827;28;20020;-64
2022/04/12 08:49:40;;;;;;;12.43;5.97;;;24.90;62.90;;;;;;5074567;28;20116;-64
2022/04/12 08:52:11;;;;;;;12.98;5.47;;;25.30;61.80;;;;;;5074589;28;20029;-64
2022/04/12 08:54:37;;;;;;;13.40;6.57;;;25.80;61.00;;;;;;5075203;28;20040;-64
2022/04/12 08:57:03;;;;;;;13.05;6.32;;;26.20;59.50;;;;;;5074780;28;20107;-64
2022/04/12 08:59:29;;;;;;;11.07;5.18;;;26.60;59.10;;;;;;5074624;28;20095;-64
2022/04/12 09:01:55;;;;;;;9.32;5.00;;;26.60;58.10;;;;;;5074664;28;20066;-64
2022/04/12 09:04:20;;;;;;;10.55;5.45;;;26.60;57.80;;;;;;5075163;28;20095;-64
2022/04/12 09:06:57;;;;;;;13.55;6.75;;;27.10;57.20;;;;;;5074750;28;20108;-64
2022/04/12 09:09:25;;;;;;;10.88;5.40;;;27.40;56.60;;;;;;5074764;28;20028;-64
2022/04/12 09:11:59;;;;;;;12.63;5.97;;;27.40;56.20;;;;;;5074268;28;20086;-64
2022/04/12 09:14:35;;;;;;;11.27;6.30;;;27.50;56.40;;;;;;5074390;28;20047;-64
2022/04/12 09:17:00;;;;;;;13.57;5.35;;;27.50;56.20;;;;;;5073150;28;20420;-64
2022/04/12 09:19:40;;;;;;;10.02;5.47;;;27.80;55.60;;;;;;5074290;28;20075;-63
2022/04/12 09:22:17;;;;;;;9.52;5.13;;;27.70;55.40;;;;;;5074197;28;20028;-64
2022/04/12 09:24:53;;;;;;;9.68;5.30;;;27.70;55.60;;;;;;5074265;28;20067;-63
2022/04/12 09:27:23;;;;;;;8.75;4.63;;;27.60;55.20;;;;;;5073919;28;20078;-63
2022/04/12 09:30:03;;;;;;;9.45;4.80;;;27.30;55.30;;;;;;5074111;28;20103;-64
2022/04/12 09:32:34;;;;;;;8.20;4.07;;;27.00;55.00;;;;;;5073976;28;20172;-64
2022/04/12 09:35:00;;;;;;;13.70;4.97;;;26.80;55.10;;;;;;5074318;28;20024;-64
2022/04/12 09:37:26;;;;;;;10.82;5.10;;;26.80;55.50;;;;;;5073970;28;20029;-64
2022/04/12 09:39:53;;;;;;;7.50;3.13;;;27.10;54.60;;;;;;5073945;28;20025;-64
2022/04/12 09:42:18;;;;;;;9.45;4.82;;;27.30;54.20;;;;;;5073821;28;20024;-64
2022/04/12 09:44:44;;;;;;;10.52;4.15;;;27.40;54.60;;;;;;5073520;28;20021;-64
2022/04/12 09:47:14;;;;;;;11.13;4.93;;;27.70;54.30;;;;;;5073671;28;20456;-64
2022/04/12 09:49:48;;;;;;;6.65;4.53;;;28.10;53.80;;;;;;5073662;28;20033;-63
2022/04/12 09:52:13;;;;;;;8.65;4.70;;;28.30;53.00;;;;;;5073303;28;20059;-64
2022/04/12 09:54:39;;;;;;;13.82;4.50;;;28.40;53.30;;;;;;5069776;28;20016;-64
2022/04/12 09:57:07;;;;;;;9.38;4.68;;;28.60;53.20;;;;;;5059204;28;20065;-64
2022/04/12 09:59:34;;;;;;;9.38;4.45;;;28.90;52.40;;;;;;5063817;28;20418;-64
2022/04/12 10:02:00;;;;;;;7.68;4.88;;;28.80;52.70;;;;;;5053964;28;20029;-64
2022/04/12 10:04:28;;;;;;;13.32;4.78;;;28.90;52.60;;;;;;5067999;28;20464;-64
2022/04/12 10:06:56;;;;;;;8.88;4.20;;;29.20;52.40;;;;;;5073679;28;20016;-63
2022/04/12 10:09:22;;;;;;;10.43;4.88;;;29.50;52.40;;;;;;5073349;28;20153;-63
2022/04/12 10:11:48;;;;;;;8.13;4.70;;;29.50;52.50;;;;;;5066761;28;20021;-64
2022/04/12 10:14:15;;;;;;;8.65;4.30;;;29.30;52.80;;;;;;5052901;28;20028;-63
2022/04/12 10:16:41;;;;;;;11.00;4.72;;;29.40;52.40;;;;;;5053240;28;20017;-63
2022/04/12 10:19:07;;;;;;;8.88;4.97;;;29.30;51.70;;;;;;5053311;28;20032;-64
2022/04/12 10:21:32;;;;;;;16.73;6.15;;;28.80;52.40;;;;;;5052881;28;20524;-64
2022/04/12 10:24:01;;;;;;;9.43;4.93;;;28.40;52.90;;;;;;5052904;28;20025;-63
2022/04/12 10:26:29;;;;;;;9.48;5.05;;;27.90;53.30;;;;;;5052735;28;20133;-63
2022/04/12 10:29:00;;;;;;;8.73;4.97;;;27.40;54.00;;;;;;5057953;28;20127;-64
2022/04/12 10:31:30;;;;;;;9.80;4.80;;;27.40;54.10;;;;;;5072980;28;20408;-63
2022/04/12 10:34:04;;;;;;;;;;;27.40;54.00;;;;;;5072282;28;20047;-64
2022/04/12 10:36:55;;;;;;;9.43;4.72;;;27.60;54.00;;;;;;5072991;28;19904;-64
2022/04/12 10:39:37;;;;;;;11.65;4.65;;;27.90;53.60;;;;;;5073002;28;20028;-64
2022/04/12 10:42:05;;;;;;;11.93;4.97;;;28.00;53.40;;;;;;5072708;28;20044;-64
2022/04/12 10:44:42;;;;;;;11.60;4.38;;;27.90;53.20;;;;;;5072766;28;20027;-64
2022/04/12 10:47:29;;;;;;;8.05;4.57;;;27.60;53.60;;;;;;5071662;28;20020;-62
2022/04/12 10:49:58;;;;;;;12.02;5.57;;;27.10;54.00;;;;;;5072540;28;20068;-63
2022/04/12 10:52:51;;;;;;;9.48;4.50;;;26.60;54.90;;;;;;5072688;28;20025;-63
2022/04/12 10:55:23;;;;;;;14.93;5.20;;;26.30;55.60;;;;;;5070392;28;20031;-63
2022/04/12 10:57:51;;;;;;;10.80;5.45;;;26.20;55.90;;;;;;5070399;28;20081;-64
2022/04/12 11:00:18;;;;;;;14.10;5.63;;;26.00;56.20;;;;;;5052509;28;20021;-64
2022/04/12 11:02:46;;;;;;;13.35;5.78;;;25.60;57.00;;;;;;5052788;28;20104;-64
2022/04/12 11:05:40;;;;;;;8.98;4.97;;;25.20;57.50;;;;;;5051905;28;20024;-63
2022/04/12 11:08:31;;;;;;;10.20;5.07;;;24.80;57.60;;;;;;5052582;28;20028;-63
2022/04/12 11:10:57;;;;;;;13.82;5.35;;;24.40;58.30;;;;;;5052170;28;20028;-64
2022/04/12 11:13:27;;;;;;;12.32;5.28;;;24.20;58.80;;;;;;5052469;28;20032;-63
2022/04/12 11:15:59;;;;;;;13.65;5.50;;;23.80;59.50;;;;;;5052672;28;20427;-63
2022/04/12 11:18:49;;;;;;;13.05;5.63;;;23.50;60.10;;;;;;5052434;28;20094;-63
2022/04/12 11:21:15;;;;;;;8.40;4.97;;;23.30;60.90;;;;;;5052324;28;20430;-63
2022/04/12 11:23:52;;;;;;;13.80;5.90;;;23.10;61.20;;;;;;5052430;28;20100;-63
2022/04/12 11:26:47;;;;;;;11.90;5.38;;;23.00;61.10;;;;;;5052571;28;20047;-63
2022/04/12 11:29:17;;;;;;;12.40;6.03;;;22.80;61.70;;;;;;5052385;28;20028;-63
2022/04/12 11:31:45;;;;;;;12.00;6.15;;;22.70;62.20;;;;;;5052522;28;20025;-63
2022/04/12 11:34:11;;;;;;;9.90;5.43;;;22.70;62.40;;;;;;5052845;28;20426;-63
2022/04/12 11:36:46;;;;;;;9.63;5.60;;;22.70;62.00;;;;;;5052535;28;20028;-63
2022/04/12 11:39:16;;;;;;;9.38;4.72;;;22.60;62.60;;;;;;5052165;28;20123;-63
2022/04/12 11:41:42;;;;;;;14.15;6.07;;;22.50;62.90;;;;;;5051947;28;20472;-63
2022/04/12 11:44:07;;;;;;;11.63;5.55;;;22.40;63.00;;;;;;5050815;28;20021;-63
2022/04/12 11:46:34;;;;;;;12.68;5.13;;;22.30;63.20;;;;;;5052380;28;20028;-63
2022/04/12 11:49:10;;;;;;;11.63;5.22;;;22.30;63.40;;;;;;5052190;28;20060;-63
2022/04/12 11:51:41;;;;;;;13.82;4.95;;;22.30;63.80;;;;;;5052281;28;20487;-63
2022/04/12 11:54:24;;;;;;;10.15;5.15;;;22.40;63.60;;;;;;5052152;28;20032;-63
2022/04/12 11:57:22;;;;;;;11.30;5.13;;;22.90;63.60;;;;;;5052352;28;20021;-63
2022/04/12 11:59:51;;;;;;;11.25;5.20;;;23.70;63.30;;;;;;5052199;28;20021;-63
2022/04/12 12:02:21;;;;;;;10.73;4.57;;;24.60;60.90;;;;;;5052231;28;20056;-63
2022/04/12 12:04:58;;;;;;;10.10;4.60;;;25.40;60.00;;;;;;5051729;28;20021;-64
2022/04/12 12:07:25;;;;;;;8.88;4.32;;;26.20;59.20;;;;;;5051979;28;20039;-63
2022/04/12 12:09:59;;;;;;;9.73;4.25;;;26.70;57.80;;;;;;5052194;28;20044;-63
2022/04/12 12:12:37;;;;;;;12.02;4.93;;;27.00;57.60;;;;;;5052101;28;20086;-64
2022/04/12 12:15:22;;;;;;;9.75;4.60;;;27.70;57.10;;;;;;5052724;28;20044;-63
2022/04/12 12:17:49;;;;;;;11.35;4.55;;;28.30;56.30;;;;;;5055477;28;20025;-64
2022/04/12 12:20:17;;;;;;;11.23;4.60;;;28.60;55.10;;;;;;5055431;28;20017;-63
2022/04/12 12:22:44;;;;;;;10.45;4.15;;;28.50;54.80;;;;;;5055893;28;20029;-63
2022/04/12 12:25:13;;;;;;;7.47;4.22;;;28.40;54.50;;;;;;5055488;28;20528;-64
2022/04/12 12:27:41;;;;;;;9.40;4.60;;;28.30;54.40;;;;;;5055148;28;20183;-64
2022/04/12 12:30:14;;;;;;;11.30;4.40;;;28.20;54.80;;;;;;5055470;28;20469;-63
2022/04/12 12:32:42;;;;;;;10.82;4.70;;;28.30;55.00;;;;;;5055261;28;20159;-64
2022/04/12 12:35:13;;;;;;;10.88;4.97;;;28.20;54.60;;;;;;5054916;28;20029;-63
2022/04/12 12:37:40;;;;;;;11.68;4.88;;;28.10;55.10;;;;;;5054939;28;20017;-64
2022/04/12 12:40:26;;;;;;;9.95;4.88;;;28.30;55.20;;;;;;5054561;28;20554;-64
2022/04/12 12:42:53;;;;;;;11.65;4.93;;;28.60;54.70;;;;;;5055331;28;20072;-64
2022/04/12 12:45:23;;;;;;;12.05;5.57;;;28.60;54.80;;;;;;5055081;28;20021;-64